createdAt,value
2023-03-18T00:03:43.012Z,52.5
2023-03-18T00:09:36.611Z,52.4
2023-03-18T00:25:25.814Z,52.3
2023-03-18T00:31:02.474Z,52.3
2023-03-18T00:36:55.671Z,52.2
2023-03-18T00:42:49.266Z,52.2
2023-03-18T00:48:42.427Z,52.1
2023-03-18T00:54:04.505Z,52.1
2023-03-18T00:59:42.521Z,52
2023-03-18T01:16:54.469Z,51.9
2023-03-18T01:22:46.946Z,51.8
2023-03-18T01:28:08.797Z,51.8
2023-03-18T01:33:45.666Z,51.8
2023-03-18T01:39:37.937Z,51.7
2023-03-18T01:45:14.997Z,51.6
2023-03-18T01:50:52.419Z,51.6
2023-03-18T01:56:30.390Z,51.6
2023-03-18T02:02:22.706Z,51.5
2023-03-18T02:08:16.462Z,51.4
2023-03-18T02:13:53.342Z,51.4
2023-03-18T02:19:46.394Z,51.4
2023-03-18T02:25:08.543Z,51.3
2023-03-18T02:30:46.340Z,51.3
2023-03-18T02:36:39.295Z,51.3
2023-03-18T02:42:32.580Z,51.2
2023-03-18T02:48:24.453Z,51.1
2023-03-18T02:54:16.681Z,51.1
2023-03-18T03:00:09.478Z,51.1
2023-03-18T03:05:17.420Z,51
2023-03-18T03:10:54.266Z,50.9
2023-03-18T03:16:31.611Z,50.9
2023-03-18T03:22:09.517Z,50.9
2023-03-18T03:28:01.697Z,50.8
2023-03-18T03:33:54.215Z,50.8
2023-03-18T03:39:16.281Z,50.8
2023-03-18T03:45:09.318Z,50.7
2023-03-18T03:51:02.734Z,50.6
2023-03-18T03:56:39.828Z,50.6
2023-03-18T04:02:01.423Z,50.6
2023-03-18T04:07:23.442Z,50.5
2023-03-18T04:13:16.047Z,50.5
2023-03-18T04:19:10.320Z,50.4
2023-03-18T04:24:31.815Z,50.4
2023-03-18T04:30:08.437Z,50.3
2023-03-18T04:36:02.237Z,50.3
2023-03-18T04:41:54.761Z,50.2
2023-03-18T04:47:48.284Z,50.2
2023-03-18T04:53:25.200Z,50.1
2023-03-18T04:59:18.896Z,50.1
2023-03-18T05:04:59.745Z,50
2023-03-18T05:10:52.357Z,50
2023-03-18T05:16:44.379Z,49.9
2023-03-18T05:22:05.934Z,49.9
2023-03-18T05:27:58.657Z,49.9
2023-03-18T05:33:52.961Z,49.8
2023-03-18T05:39:46.062Z,49.8
2023-03-18T05:45:46.840Z,49.8
2023-03-18T05:51:39.393Z,49.7
2023-03-18T05:57:33.378Z,49.6
2023-03-18T06:02:55.953Z,49.6
2023-03-18T06:08:35.979Z,49.6
2023-03-18T06:14:29.014Z,49.5
2023-03-18T06:20:22.537Z,49.4
2023-03-18T06:26:00.124Z,49.4
2023-03-18T06:31:53.907Z,49.4
2023-03-18T06:37:46.746Z,49.3
2023-03-18T06:43:39.703Z,49.3
2023-03-18T06:49:35.058Z,49.2
2023-03-18T06:55:26.717Z,49.2
2023-03-18T07:01:19.204Z,49.1
2023-03-18T07:06:57.730Z,49.1
2023-03-18T07:12:49.216Z,49.1
2023-03-18T07:18:44.947Z,49
2023-03-18T07:24:23.527Z,48.9
2023-03-18T07:30:01.940Z,48.9
2023-03-18T07:35:58.653Z,48.9
2023-03-18T07:41:54.276Z,48.9
2023-03-18T07:47:47.462Z,48.8
2023-03-18T07:53:38.857Z,48.8
2023-03-18T07:59:35.159Z,48.7
2023-03-18T08:05:31.082Z,48.6
2023-03-18T08:11:09.150Z,48.6
2023-03-18T08:17:22.008Z,48.6
2023-03-18T08:23:15.071Z,48.6
2023-03-18T08:29:08.305Z,48.5
2023-03-18T08:35:02.376Z,48.4
2023-03-18T08:40:41.779Z,48.4
2023-03-18T08:46:34.388Z,48.4
2023-03-18T08:52:12.104Z,48.4
2023-03-18T08:58:04.282Z,48.9
2023-03-18T09:03:26.517Z,49.5
2023-03-18T09:09:04.014Z,50.2
2023-03-18T09:15:03.182Z,50.9
2023-03-18T09:21:22.643Z,51.8
2023-03-18T09:27:15.489Z,52.6
2023-03-18T09:33:08.217Z,53.4
2023-03-18T09:39:01.491Z,54.2
2023-03-18T09:44:54.651Z,54.9
2023-03-18T09:50:47.892Z,55.7
2023-03-18T09:56:40.708Z,56.5
2023-03-18T10:02:17.577Z,57.3
2023-03-18T10:08:10.498Z,58.1
2023-03-18T10:13:47.409Z,58.9
2023-03-18T10:19:25.341Z,59.5
2023-03-18T10:25:20.799Z,59.9
2023-03-18T10:31:22.388Z,60.4
2023-03-18T10:37:18.717Z,60.7
2023-03-18T10:43:11.936Z,60.9
2023-03-18T10:49:04.946Z,61
2023-03-18T10:54:57.441Z,61
2023-03-18T11:00:50.137Z,61
2023-03-18T11:06:42.884Z,60.9
2023-03-18T11:12:36.272Z,60.9
2023-03-18T11:18:29.710Z,60.9
2023-03-18T11:24:22.383Z,60.9
2023-03-18T11:30:21.395Z,60.8
2023-03-18T11:36:18.517Z,60.8
2023-03-18T11:42:16.588Z,60.8
2023-03-18T11:48:10.003Z,60.7
2023-03-18T11:53:47.661Z,61.1
2023-03-18T11:59:09.852Z,61.1
2023-03-18T12:04:32.162Z,61.1
2023-03-18T12:09:56.238Z,61.1
2023-03-18T12:15:50.615Z,61.4
2023-03-18T12:21:44.907Z,61.6
2023-03-18T12:27:06.610Z,61.6
2023-03-18T12:32:44.366Z,61.9
2023-03-18T12:38:24.098Z,62.1
2023-03-18T12:44:17.737Z,62.1
2023-03-18T12:50:22.772Z,62.1
2023-03-18T12:55:59.584Z,62.1
2023-03-18T13:01:56.210Z,62.1
2023-03-18T13:07:37.050Z,62.3
2023-03-18T13:13:13.925Z,62.3
2023-03-18T13:18:55.226Z,62.2
2023-03-18T13:24:48.652Z,62.2
2023-03-18T13:30:42.232Z,62.1
2023-03-18T13:36:37.466Z,62.1
2023-03-18T13:42:30.472Z,62.1
2023-03-18T13:48:24.224Z,62.1
2023-03-18T13:54:02.596Z,62
2023-03-18T13:59:54.867Z,61.9
2023-03-18T14:05:49.332Z,61.9
2023-03-18T14:11:58.423Z,61.9
2023-03-18T14:17:52.374Z,61.8
2023-03-18T14:23:17.425Z,61.8
2023-03-18T14:28:56.333Z,61.8
2023-03-18T14:34:18.703Z,61.7
2023-03-18T14:39:55.682Z,61.6
2023-03-18T14:45:52.207Z,61.6
2023-03-18T14:51:37.446Z,61.5
2023-03-18T14:57:14.062Z,61.5
2023-03-18T15:03:07.074Z,61.4
2023-03-18T15:09:13.488Z,61.4
2023-03-18T15:14:49.674Z,61.3
2023-03-18T15:20:27.309Z,61.3
2023-03-18T15:26:20.867Z,61.3
2023-03-18T15:31:57.711Z,61.2
2023-03-18T15:37:51.465Z,61.1
2023-03-18T15:43:43.960Z,61.1
2023-03-18T15:49:21.969Z,61.1
2023-03-18T15:54:58.879Z,61
2023-03-18T16:00:52.574Z,60.9
2023-03-18T16:06:44.913Z,60.9
2023-03-18T16:12:38.068Z,60.8
2023-03-18T16:18:15.807Z,60.8
2023-03-18T16:24:08.448Z,60.8
2023-03-18T16:30:01.516Z,60.7
2023-03-18T16:35:54.831Z,60.6
2023-03-18T16:41:32.152Z,60.6
2023-03-18T16:47:10.416Z,60.6
2023-03-18T16:52:46.733Z,60.5
2023-03-18T16:58:24.267Z,60.4
2023-03-18T17:04:17.163Z,60.4
2023-03-18T17:09:54.959Z,60.4
2023-03-18T17:15:50.781Z,60.3
2023-03-18T17:21:27.061Z,60.3
2023-03-18T17:27:19.676Z,60.2
2023-03-18T17:33:00.578Z,60.1
2023-03-18T17:38:53.065Z,60.1
2023-03-18T17:44:30.536Z,60.1
2023-03-18T17:50:07.892Z,60
2023-03-18T17:55:44.841Z,59.9
2023-03-18T18:01:37.932Z,59.9
2023-03-18T18:07:15.746Z,59.9
2023-03-18T18:12:52.559Z,59.8
2023-03-18T18:18:30.474Z,59.8
2023-03-18T18:24:27.259Z,59.7
2023-03-18T18:30:07.600Z,59.7
2023-03-18T18:35:30.669Z,59.6
2023-03-18T18:41:07.712Z,59.6
2023-03-18T18:47:00.794Z,59.5
2023-03-18T18:52:23.199Z,59.4
2023-03-18T18:58:16.630Z,59.4
2023-03-18T19:04:10.342Z,59.4
2023-03-18T19:09:48.407Z,59.3
2023-03-18T19:15:42.352Z,59.3
2023-03-18T19:21:19.798Z,59.2
2023-03-18T19:27:13.178Z,59.2
2023-03-18T19:32:57.555Z,59.1
2023-03-18T19:38:49.797Z,59.1
2023-03-18T19:44:28.688Z,59
2023-03-18T19:50:07.993Z,58.9
2023-03-18T19:56:02.277Z,58.9
2023-03-18T20:01:58.322Z,58.9
2023-03-18T20:07:52.242Z,58.8
2023-03-18T20:13:44.501Z,58.8
2023-03-18T20:19:37.984Z,58.7
2023-03-18T20:25:30.182Z,58.7
2023-03-18T20:31:08.080Z,58.6
2023-03-18T20:46:59.756Z,58.5
2023-03-18T20:52:37.147Z,58.4
2023-03-18T20:58:29.569Z,58.4
2023-03-18T21:04:07.845Z,58.3
2023-03-18T21:10:00.979Z,58.3
2023-03-18T21:15:38.943Z,58.3
2023-03-18T21:21:44.756Z,58.2
2023-03-18T21:27:52.905Z,58.1
2023-03-18T21:33:49.260Z,58.1
2023-03-18T21:39:26.525Z,58
2023-03-18T21:45:04.384Z,58
2023-03-18T21:51:00.027Z,57.9
2023-03-18T21:57:04.500Z,57.9
2023-03-18T22:02:57.288Z,57.9
2023-03-18T22:19:49.413Z,57.7
2023-03-18T22:25:27.169Z,57.7
2023-03-18T22:30:49.179Z,57.6
2023-03-18T22:36:27.775Z,57.6
2023-03-18T22:42:20.411Z,57.5
2023-03-18T22:48:15.313Z,57.5
2023-03-18T22:53:51.905Z,57.4
2023-03-18T22:59:31.273Z,57.4
2023-03-18T23:05:25.898Z,57.3
2023-03-18T23:11:01.248Z,57.3
2023-03-18T23:16:55.022Z,57.3
2023-03-18T23:22:48.574Z,57.2
2023-03-18T23:28:44.665Z,57.1
2023-03-18T23:34:38.692Z,57.1
2023-03-18T23:39:45.168Z,57.1
2023-03-18T23:45:39.573Z,57
2023-03-18T23:51:33.783Z,57
2023-03-18T23:57:48.739Z,56.9
